createdAt,value
2023-02-13T07:57:16.746Z,100458.53
2023-02-13T07:59:45.605Z,100455.25
2023-02-13T08:02:15.341Z,100458.50
2023-02-13T08:04:46.322Z,100445.97
2023-02-13T08:07:17.135Z,100458.22
2023-02-13T08:10:05.996Z,100461.19
2023-02-13T08:12:36.046Z,100461.41
2023-02-13T08:15:05.479Z,100470.16
2023-02-13T08:17:32.771Z,100465.22
2023-02-13T08:20:00.148Z,100468.00
2023-02-13T08:22:27.509Z,100465.19
2023-02-13T08:24:54.822Z,100469.78
2023-02-13T08:27:23.053Z,100460.66
2023-02-13T08:29:53.834Z,100455.69
2023-02-13T08:32:21.181Z,100463.69
2023-02-13T08:34:48.518Z,100458.41
2023-02-13T08:37:16.732Z,100460.47
2023-02-13T08:39:44.698Z,100463.16
2023-02-13T08:42:15.674Z,100460.41
2023-02-13T08:44:44.285Z,100456.56
2023-02-13T08:47:11.869Z,100457.03
2023-02-13T08:49:39.193Z,100455.88
2023-02-13T08:52:06.556Z,100450.41
2023-02-13T08:54:36.152Z,100457.41
2023-02-13T08:57:03.982Z,100456.56
2023-02-13T08:59:31.397Z,100451.75
2023-02-13T09:01:58.964Z,100454.13
2023-02-13T09:04:26.353Z,100451.97
2023-02-13T09:06:53.912Z,100455.94
2023-02-13T09:09:21.313Z,100457.34
2023-02-13T09:11:48.682Z,100454.06
2023-02-13T09:14:16.026Z,100463.69
2023-02-13T09:16:43.387Z,100457.97
2023-02-13T09:19:10.714Z,100469.47
2023-02-13T09:21:38.028Z,100459.97
2023-02-13T09:24:10.456Z,100461.09
2023-02-13T09:26:37.934Z,100463.63
2023-02-13T09:29:05.262Z,100464.75
2023-02-13T09:31:32.662Z,100467.28
2023-02-13T09:34:00.030Z,100476.34
2023-02-13T09:36:27.360Z,100470.00
2023-02-13T09:38:57.691Z,100478.47
2023-02-13T09:41:40.973Z,100474.03
2023-02-13T09:44:44.710Z,100472.47
2023-02-13T09:47:37.233Z,100471.38
2023-02-13T09:50:28.634Z,100475.56
2023-02-13T09:52:58.494Z,100465.69
2023-02-13T09:56:16.380Z,100468.84
2023-02-13T09:59:12.504Z,100460.47
2023-02-13T10:01:50.541Z,100473.31
2023-02-13T10:05:02.087Z,100466.75
2023-02-13T10:08:12.819Z,100465.53
2023-02-13T10:11:41.138Z,100470.69
2023-02-13T10:15:05.422Z,100461.78
2023-02-13T10:18:06.468Z,100465.72
2023-02-13T10:20:52.768Z,100461.81
2023-02-13T10:23:50.180Z,100460.09
2023-02-13T10:26:42.709Z,100463.53
2023-02-13T10:29:42.513Z,100460.97
2023-02-13T10:32:17.234Z,100457.56
2023-02-13T10:34:47.091Z,100462.66
2023-02-13T10:37:21.421Z,100460.31
2023-02-13T10:39:54.124Z,100454.88
2023-02-13T10:42:42.130Z,100448.47
2023-02-13T10:46:31.382Z,100447.22
2023-02-13T10:49:17.837Z,100450.19
2023-02-13T10:52:33.713Z,100433.06
2023-02-13T10:55:30.570Z,100428.69
2023-02-13T10:58:20.850Z,100424.81
2023-02-13T11:01:13.598Z,100432.88
2023-02-13T11:03:41.209Z,100429.31
2023-02-13T11:06:18.142Z,100426.38
2023-02-13T11:08:48.214Z,100426.03
2023-02-13T11:11:39.066Z,100434.00
2023-02-13T11:14:20.694Z,100420.25
2023-02-13T11:17:09.740Z,100419.84
2023-02-13T11:19:56.157Z,100412.38
2023-02-13T11:22:42.709Z,100410.66
2023-02-13T11:25:30.110Z,100411.34
2023-02-13T11:28:21.208Z,100404.56
2023-02-13T11:30:49.081Z,100405.97
2023-02-13T11:33:28.654Z,100409.34
2023-02-13T11:36:31.872Z,100407.09
2023-02-13T11:39:17.757Z,100401.19
2023-02-13T11:41:50.884Z,100393.72
2023-02-13T11:44:31.285Z,100397.53
2023-02-13T11:47:03.225Z,100388.16
2023-02-13T11:49:39.461Z,100389.16
2023-02-13T11:52:31.027Z,100392.09
2023-02-13T11:55:31.448Z,100384.91
2023-02-13T11:58:12.165Z,100387.72
2023-02-13T12:00:42.494Z,100386.44
2023-02-13T12:03:31.980Z,100386.66
2023-02-13T12:06:15.869Z,100386.09
2023-02-13T12:08:49.288Z,100378.34
2023-02-13T12:11:42.190Z,100376.59
2023-02-13T12:14:28.573Z,100375.78
2023-02-13T12:17:29.211Z,100377.47
2023-02-13T12:19:58.304Z,100369.97
2023-02-13T12:22:41.962Z,100367.75
2023-02-13T12:25:33.412Z,100362.50
2023-02-13T12:28:43.931Z,100365.09
2023-02-13T12:32:20.800Z,100351.97
2023-02-13T12:35:34.028Z,100362.63
2023-02-13T12:39:13.933Z,100356.88
2023-02-13T12:42:51.947Z,100355.25
2023-02-13T12:45:53.797Z,100351.78
2023-02-13T12:48:58.429Z,100338.31
2023-02-13T12:52:13.516Z,100340.72
2023-02-13T12:55:27.344Z,100336.78
2023-02-13T12:58:25.507Z,100339.66
2023-02-13T13:01:57.836Z,100332.56
2023-02-13T13:05:05.102Z,100333.19
2023-02-13T13:07:54.777Z,100330.06
2023-02-13T13:11:20.558Z,100334.63
2023-02-13T13:14:42.228Z,100330.94
2023-02-13T13:17:58.733Z,100328.16
2023-02-13T13:20:52.338Z,100322.31
2023-02-13T13:23:41.670Z,100323.72
2023-02-13T13:26:43.677Z,100318.63
2023-02-13T13:29:36.544Z,100306.28
2023-02-13T13:32:13.749Z,100315.94
2023-02-13T13:34:41.504Z,100315.22
2023-02-13T13:37:48.101Z,100310.25
2023-02-13T13:40:58.124Z,100311.00
2023-02-13T13:44:03.191Z,100303.38
2023-02-13T13:47:05.770Z,100308.75
2023-02-13T13:49:58.585Z,100300.66
2023-02-13T13:52:39.876Z,100292.94
2023-02-13T13:55:29.573Z,100301.84
2023-02-13T13:58:02.808Z,100292.75
2023-02-13T14:00:31.378Z,100298.69
2023-02-13T14:03:34.629Z,100285.72
2023-02-13T14:06:22.026Z,100293.41
2023-02-13T14:08:49.637Z,100296.28
2023-02-13T14:11:47.249Z,100298.59
2023-02-13T14:14:30.587Z,100298.63
2023-02-13T14:17:04.220Z,100290.41
2023-02-13T14:19:40.056Z,100293.94
2023-02-13T14:22:19.482Z,100295.00
2023-02-13T14:24:55.678Z,100284.81
2023-02-13T14:27:40.784Z,100285.66
2023-02-13T14:30:40.393Z,100292.19
2023-02-13T14:33:31.755Z,100293.47
2023-02-13T14:36:23.148Z,100293.81
2023-02-13T14:39:20.969Z,100291.97
2023-02-13T14:41:54.157Z,100286.09
2023-02-13T14:44:50.043Z,100289.94
2023-02-13T14:47:42.917Z,100295.47
2023-02-13T14:50:45.884Z,100289.41
2023-02-13T14:53:32.825Z,100288.75
2023-02-13T14:56:13.739Z,100283.88
2023-02-13T14:59:11.010Z,100284.47
2023-02-13T15:02:31.115Z,100280.19
2023-02-13T15:05:20.196Z,100280.53
2023-02-13T15:08:28.404Z,100273.56
2023-02-13T15:10:57.712Z,100277.91
2023-02-13T15:13:37.459Z,100270.19
2023-02-13T15:16:12.807Z,100279.34
2023-02-13T15:18:52.823Z,100268.47
2023-02-13T15:21:33.081Z,100260.19
2023-02-13T15:24:00.467Z,100266.38
2023-02-13T15:26:29.207Z,100275.28
2023-02-13T15:29:27.924Z,100271.34
2023-02-13T15:31:59.755Z,100269.34
2023-02-13T15:34:36.078Z,100261.13
2023-02-13T15:37:03.936Z,100256.78
2023-02-13T15:39:32.849Z,100262.69
2023-02-13T15:42:03.177Z,100257.59
2023-02-13T15:44:38.543Z,100255.66
2023-02-13T15:47:17.402Z,100257.50
2023-02-13T15:49:47.816Z,100251.56
2023-02-13T15:52:37.875Z,100255.69
2023-02-13T15:55:06.098Z,100250.66
2023-02-13T15:57:34.091Z,100252.78
2023-02-13T16:00:02.967Z,100261.16
2023-02-13T16:02:47.525Z,100264.88
2023-02-13T16:05:19.999Z,100261.16
2023-02-13T16:07:59.162Z,100261.69
2023-02-13T16:10:37.256Z,100270.06
2023-02-13T16:13:16.588Z,100255.75
2023-02-13T16:15:44.682Z,100265.22
2023-02-13T16:18:21.017Z,100261.97
2023-02-13T16:20:56.469Z,100273.19
2023-02-13T16:23:24.252Z,100264.38
2023-02-13T16:25:52.122Z,100259.25
2023-02-13T16:28:27.338Z,100266.78
2023-02-13T16:31:03.218Z,100263.03
2023-02-13T16:33:33.993Z,100256.75
2023-02-13T16:36:29.542Z,100271.31
2023-02-13T16:38:56.867Z,100278.19
2023-02-13T16:41:26.743Z,100273.59
2023-02-13T16:43:58.204Z,100281.28
2023-02-13T16:46:38.016Z,100270.88
2023-02-13T16:49:09.602Z,100282.81
2023-02-13T16:52:12.299Z,100282.03
2023-02-13T16:54:59.898Z,100286.25
2023-02-13T16:57:34.531Z,100280.88
2023-02-13T17:00:24.474Z,100286.16
2023-02-13T17:02:52.803Z,100283.66
2023-02-13T17:05:24.662Z,100288.41
2023-02-13T17:08:01.408Z,100290.72
2023-02-13T17:10:37.495Z,100289.38
2023-02-13T17:13:20.127Z,100294.63
2023-02-13T17:15:48.866Z,100287.97
2023-02-13T17:18:16.205Z,100290.91
2023-02-13T17:20:45.180Z,100289.91
2023-02-13T17:23:22.538Z,100281.47
2023-02-13T17:25:52.682Z,100296.25
2023-02-13T17:28:27.787Z,100298.19
2023-02-13T17:30:58.740Z,100291.88
2023-02-13T17:33:34.684Z,100293.50
2023-02-13T17:36:01.975Z,100296.28
2023-02-13T17:38:29.305Z,100295.78
2023-02-13T17:40:56.993Z,100297.56
2023-02-13T17:43:26.889Z,100306.81
2023-02-13T17:45:54.237Z,100303.94
2023-02-13T17:48:21.670Z,100316.03
2023-02-13T17:50:51.110Z,100309.75
2023-02-13T17:53:30.213Z,100312.28
2023-02-13T17:55:58.586Z,100308.34
2023-02-13T17:58:26.042Z,100308.72
2023-02-13T18:00:53.773Z,100311.56
2023-02-13T18:03:22.289Z,100312.16
2023-02-13T18:05:50.355Z,100316.38
2023-02-13T18:08:17.799Z,100333.28
2023-02-13T18:10:45.110Z,100325.84
2023-02-13T18:13:12.503Z,100320.69
2023-02-13T18:15:44.851Z,100327.53
2023-02-13T18:18:16.183Z,100329.13
2023-02-13T18:20:44.729Z,100322.72
2023-02-13T18:23:12.034Z,100327.56
2023-02-13T18:25:39.353Z,100342.31
2023-02-13T18:28:06.729Z,100327.94
2023-02-13T18:30:34.161Z,100331.41
2023-02-13T18:33:05.009Z,100328.75
2023-02-13T18:35:33.388Z,100322.56
2023-02-13T18:38:00.849Z,100333.59
2023-02-13T18:40:28.148Z,100329.59
2023-02-13T18:42:55.462Z,100327.34
2023-02-13T18:45:22.742Z,100328.22
2023-02-13T18:47:50.062Z,100323.03
2023-02-13T18:50:17.478Z,100325.09
2023-02-13T18:52:44.906Z,100327.00
2023-02-13T18:55:12.264Z,100307.25
2023-02-13T18:57:43.365Z,100313.38
2023-02-13T19:00:13.979Z,100316.13
2023-02-13T19:02:41.332Z,100323.63
2023-02-13T19:05:08.882Z,100316.88
2023-02-13T19:07:36.765Z,100320.59
2023-02-13T19:10:04.486Z,100325.94
2023-02-13T19:12:31.839Z,100321.53
2023-02-13T19:14:59.151Z,100338.25
2023-02-13T19:17:26.562Z,100332.94
2023-02-13T19:19:55.788Z,100330.94
2023-02-13T19:22:23.117Z,100332.53
2023-02-13T19:24:50.912Z,100318.06
2023-02-13T19:27:18.645Z,100321.66
2023-02-13T19:29:47.535Z,100322.38
2023-02-13T19:32:14.889Z,100326.88
2023-02-13T19:34:42.443Z,100328.06
2023-02-13T19:37:09.738Z,100327.53
2023-02-13T19:39:37.125Z,100332.56
2023-02-13T19:42:04.696Z,100337.03
2023-02-13T19:44:31.998Z,100337.81
2023-02-13T19:46:59.304Z,100345.78
2023-02-13T19:49:26.611Z,100348.22
2023-02-13T19:51:53.893Z,100347.91
2023-02-13T19:54:22.064Z,100351.38
2023-02-13T19:56:49.456Z,100349.34
2023-02-13T19:59:16.762Z,100348.38
2023-02-13T20:01:44.278Z,100342.50
2023-02-13T20:04:12.155Z,100339.66
2023-02-13T20:06:40.030Z,100347.78
2023-02-13T20:09:14.471Z,100349.94
2023-02-13T20:11:43.748Z,100342.81
2023-02-13T20:14:15.134Z,100343.09
2023-02-13T20:16:45.604Z,100346.66
2023-02-13T20:19:13.922Z,100340.31
2023-02-13T20:21:42.837Z,100341.09
2023-02-13T20:24:11.973Z,100345.19
2023-02-13T20:26:40.281Z,100354.84
2023-02-13T20:29:09.358Z,100349.25
2023-02-13T20:31:39.497Z,100354.13
2023-02-13T20:34:08.088Z,100355.75
2023-02-13T20:36:35.756Z,100352.34
2023-02-13T20:39:07.655Z,100350.72
2023-02-13T20:41:37.756Z,100352.59
2023-02-13T20:44:11.775Z,100356.41
2023-02-13T20:46:40.373Z,100359.59
2023-02-13T20:49:10.058Z,100359.44
2023-02-13T20:51:37.499Z,100348.56
2023-02-13T20:54:05.858Z,100362.97
2023-02-13T20:56:33.189Z,100350.72
2023-02-13T20:59:02.573Z,100365.03
2023-02-13T21:01:41.285Z,100360.53
2023-02-13T21:04:11.272Z,100365.19
2023-02-13T21:06:41.581Z,100359.03
2023-02-13T21:09:09.938Z,100352.66
2023-02-13T21:11:43.177Z,100355.19
2023-02-13T21:14:14.360Z,100355.59
2023-02-13T21:16:42.918Z,100356.97
2023-02-13T21:19:19.229Z,100349.75
2023-02-13T21:21:47.596Z,100355.84
2023-02-13T21:24:22.777Z,100351.16
2023-02-13T21:26:52.718Z,100353.41
2023-02-13T21:29:20.292Z,100355.59
2023-02-13T21:31:48.036Z,100356.28
2023-02-13T21:34:17.953Z,100355.16
2023-02-13T21:36:46.069Z,100345.13
2023-02-13T21:39:13.842Z,100350.31
2023-02-13T21:41:45.684Z,100350.03
2023-02-13T21:44:15.491Z,100332.81
2023-02-13T21:46:45.186Z,100358.09
2023-02-13T21:49:18.079Z,100349.16
2023-02-13T21:51:47.050Z,100356.44
2023-02-13T21:54:14.938Z,100351.97
2023-02-13T21:56:44.157Z,100354.13
2023-02-13T21:59:16.727Z,100352.03
2023-02-13T22:01:54.026Z,100360.75
2023-02-13T22:04:21.887Z,100356.75
2023-02-13T22:06:52.521Z,100358.91
